Ifestos I — SV4139 — position and weather

sailwx.info

Track history (hours):
 
Tides and Currents Weather Stations Pressure Air Temp Water Temp Dewpoint Dewpoint Depression Visibility Wind Speed Wind Dir Waves Ship Positions

Ifestos I

Last reported at 2015-Aug-01 12:32 UTC. Time now 2015-Aug-01 16:15 UTC.
Position N 37°57' E 023°37'.

Length 30 m.

Type: Tug. MMSI: 237070500.

Date/timePositionNaut miles runAvg speedWind from/ knotsBaromVisibWave heightAir tempDewpointWater temp
2015-Aug-01 12:32N 37°57' E 023°37'0 0.0
2015-Aug-01 11:34N 37°57' E 023°37'4 3.9
2015-Aug-01 10:34N 38°01' E 023°35'0 0.4
2015-Aug-01 09:34N 38°01' E 023°36'0 0.1
2015-Aug-01 08:33N 38°01' E 023°36'0 0.1
2015-Aug-01 07:32N 38°01' E 023°35'4 4.4
2015-Aug-01 06:33N 37°58' E 023°33'3 2.6
2015-Aug-01 05:34N 37°57' E 023°36'2 1.7
2015-Aug-01 04:34N 37°56' E 023°36'0 0.3
2015-Aug-01 03:34N 37°56' E 023°36'2 1.7
2015-Aug-01 02:34N 37°57' E 023°37'0 0.0
2015-Jul-31 12:05N 37°57' E 023°37'0 0.0
2015-Jul-31 11:33N 37°57' E 023°37'0 0.2
2015-Jul-31 10:33N 37°58' E 023°36'2 2.1
2015-Jul-31 09:33N 37°55' E 023°36'2 1.5
2015-Jul-31 08:33N 37°57' E 023°36'2 2.1
2015-Jul-31 07:33N 37°58' E 023°33'0 0.0
2015-Jul-31 06:33N 37°58' E 023°33'1 1.3
2015-Jul-31 05:33N 37°57' E 023°35'1 1.4
2015-Jul-31 04:33N 37°56' E 023°35'1 1.2
2015-Jul-31 03:33N 37°57' E 023°36'1 0.8
2015-Jul-31 02:33N 37°57' E 023°37'0 0.0
2015-Jul-30 16:33N 37°57' E 023°37'0 0.0
2015-Jul-30 15:33N 37°57' E 023°37'6 5.6
2015-Jul-30 14:33N 38°02' E 023°32'0 0.2
2015-Jul-30 13:33N 38°02' E 023°32'0 0.0
2015-Jul-30 12:33N 38°02' E 023°32'2 2.4
2015-Jul-30 11:33N 38°02' E 023°35'2 2.1
2015-Jul-30 10:33N 38°01' E 023°33'4 4.0
2015-Jul-30 09:33N 37°57' E 023°37'0 0.0
2015-Jul-30 08:33N 37°57' E 023°37'1 0.9
2015-Jul-30 07:33N 37°57' E 023°37'1 0.5
2015-Jul-30 06:33N 37°57' E 023°36'1 1.0
2015-Jul-30 05:33N 37°57' E 023°37'0 0.0
2015-Jul-30 04:33N 37°57' E 023°37'0 0.0
2015-Jul-30 03:33N 37°57' E 023°37'0 0.0
2015-Jul-30 02:33N 37°57' E 023°37'0 0.0
2015-Jul-29 20:33N 37°57' E 023°37'0 0.0
2015-Jul-29 19:34N 37°57' E 023°37'0 0.0
2015-Jul-29 18:33N 37°57' E 023°37'4 3.7
2015-Jul-29 17:34N 37°60' E 023°33'3 3.1
2015-Jul-29 16:33N 38°02' E 023°31'6 6.4
2015-Jul-29 15:34N 37°57' E 023°36'0 0.5
2015-Jul-29 14:33N 37°57' E 023°37'0 0.0
2015-Jul-29 13:33N 37°57' E 023°37'0 0.0
2015-Jul-29 12:33N 37°57' E 023°37'0 0.0
2015-Jul-29 11:33N 37°57' E 023°37'0 0.2
2015-Jul-29 10:34N 37°58' E 023°36'0 0.3
2015-Jul-29 09:34N 37°57' E 023°36'0 0.4
2015-Jul-29 08:33N 37°57' E 023°37'0 0.0
2015-Jul-29 07:33N 37°57' E 023°37'0 0.0
2015-Jul-29 06:34N 37°57' E 023°37'0 0.0
2015-Jul-29 05:33N 37°57' E 023°37'0 0.0
2015-Jul-29 04:34N 37°57' E 023°37'0 0.1
2015-Jul-29 03:33N 37°57' E 023°37'0 0.0
2015-Jul-29 02:33N 37°57' E 023°37'0 0.0
2015-Jul-29 01:33N 37°57' E 023°37'0 0.0
2015-Jul-29 00:34N 37°57' E 023°37'0 0.0
2015-Jul-28 23:34N 37°57' E 023°37'0 0.0
2015-Jul-28 22:34N 37°57' E 023°37'0 0.1
2015-Jul-28 21:34N 37°58' E 023°37'0 0.1
2015-Jul-28 20:33N 37°57' E 023°37'0 0.0
2015-Jul-28 19:34N 37°57' E 023°37'0 0.0
2015-Jul-28 18:33N 37°57' E 023°37'0 0.0
2015-Jul-28 17:33N 37°57' E 023°37'0 0.0
2015-Jul-28 16:33N 37°57' E 023°37'0 0.0
2015-Jul-28 15:33N 37°57' E 023°37'0 0.0
2015-Jul-28 14:33N 37°57' E 023°37'0 0.0
2015-Jul-28 13:33N 37°57' E 023°37'2 1.6
2015-Jul-28 12:34N 37°57' E 023°35'4 4.4
2015-Jul-28 11:33N 38°01' E 023°36'0 0.1
2015-Jul-28 10:34N 38°01' E 023°36'3 2.6
2015-Jul-28 09:33N 38°02' E 023°32'1 1.3
2015-Jul-28 08:34N 38°02' E 023°31'1 0.6
2015-Jul-28 06:33N 38°02' E 023°32'3 2.7
2015-Jul-28 05:33N 37°59' E 023°33'4 4.0
2015-Jul-28 04:34N 37°56' E 023°35'2 2.2
2015-Jul-28 03:34N 37°57' E 023°37'0 0.0
2015-Jul-28 02:33N 37°57' E 023°37'0 0.0
2015-Jul-26 23:33N 37°57' E 023°37'0 0.0
2015-Jul-26 22:33N 37°57' E 023°37'0 0.0
2015-Jul-26 21:33N 37°57' E 023°37'0 0.4
2015-Jul-26 20:33N 37°57' E 023°36'0 0.4
2015-Jul-26 19:33N 37°57' E 023°37'0 0.0
2015-Jul-26 18:33N 37°57' E 023°37'1 0.5
2015-Jul-26 17:33N 37°57' E 023°36'0 0.4
2015-Jul-26 16:33N 37°58' E 023°36'0 0.2
2015-Jul-26 15:33N 37°57' E 023°37'0 0.4
2015-Jul-26 14:33N 37°58' E 023°36'0 0.4
2015-Jul-26 13:33N 37°57' E 023°37'2 1.6
2015-Jul-26 12:33N 37°56' E 023°36'2 1.6
2015-Jul-26 11:33N 37°57' E 023°37'0 0.0
2015-Jul-26 10:33N 37°57' E 023°37'0 0.0
2015-Jul-26 09:33N 37°57' E 023°37'0 0.0
2015-Jul-26 08:33N 37°57' E 023°37'6 6.4
2015-Jul-26 07:33N 38°02' E 023°31'0 0.4
2015-Jul-26 06:33N 38°02' E 023°31'2 2.2
2015-Jul-26 05:33N 38°00' E 023°32'4 4.2
2015-Jul-26 04:33N 37°57' E 023°36'0 0.5
2015-Jul-26 03:33N 37°57' E 023°37'0 0.0
2015-Jul-26 02:33N 37°57' E 023°37'0 0.0
2015-Jul-26 01:33N 37°57' E 023°37'0 0.0
2015-Jul-26 00:33N 37°57' E 023°37'0 0.0
2015-Jul-25 23:33N 37°57' E 023°37'0 0.0
2015-Jul-25 22:33N 37°57' E 023°37'0 0.0
2015-Jul-25 21:33N 37°57' E 023°37'0 0.0
2015-Jul-25 20:33N 37°57' E 023°37'0 0.0
2015-Jul-25 19:33N 37°57' E 023°37'1 1.0
2015-Jul-25 18:33N 37°57' E 023°36'1 1.0
2015-Jul-25 17:33N 37°57' E 023°37'0 0.0
2015-Jul-25 16:33N 37°57' E 023°37'1 1.5
2015-Jul-25 15:33N 37°56' E 023°37'0 0.0
2015-Jul-25 14:33N 37°56' E 023°37'1 0.6
2015-Jul-25 13:33N 37°56' E 023°38'2 1.6
2015-Jul-25 12:33N 37°57' E 023°37'0 0.0
2015-Jul-25 11:34N 37°57' E 023°37'0 0.0
2015-Jul-25 10:33N 37°57' E 023°37'0 0.0
2015-Jul-25 02:24N 37°57' E 023°37'0 0.0
2015-Jul-25 01:33N 37°57' E 023°37'0 0.1
2015-Jul-25 00:33N 37°57' E 023°37'7 6.6
2015-Jul-24 23:33N 38°02' E 023°31'0 0.1
2015-Jul-24 22:33N 38°02' E 023°31'0 0.0
2015-Jul-24 21:33N 38°02' E 023°31'0 0.0
2015-Jul-24 20:33N 38°02' E 023°31'2 1.9
2015-Jul-24 19:33N 38°01' E 023°32'5 4.7
2015-Jul-24 18:33N 37°57' E 023°37'0 0.4
2015-Jul-24 17:33N 37°57' E 023°36'0 0.4
2015-Jul-24 16:33N 37°58' E 023°36'0 0.2
2015-Jul-24 15:33N 37°57' E 023°37'0 0.0
2015-Jul-24 14:33N 37°57' E 023°37'0 0.0
2015-Jul-24 13:33N 37°57' E 023°37'1 0.7
2015-Jul-24 12:33N 37°57' E 023°36'0 0.1
2015-Jul-24 11:33N 37°57' E 023°36'1 0.6
2015-Jul-24 10:33N 37°57' E 023°37'0 0.0
2015-Jul-24 05:04N 37°57' E 023°37'0 0.0
2015-Jul-24 04:33N 37°57' E 023°37'0 0.0
2015-Jul-24 03:34N 37°57' E 023°37'0 0.0
2015-Jul-24 02:34N 37°57' E 023°37'1 1.3
2015-Jul-24 01:33N 37°56' E 023°37'1 1.3
2015-Jul-24 00:33N 37°57' E 023°37'0 0.0
2015-Jul-23 23:34N 37°57' E 023°37'0 0.0
2015-Jul-23 22:34N 37°57' E 023°37'0 0.0
2015-Jul-23 21:34N 37°57' E 023°37'0 0.0
2015-Jul-23 20:33N 37°57' E 023°37'7 6.5
2015-Jul-23 19:33N 38°02' E 023°30'1 0.5
2015-Jul-23 18:34N 38°02' E 023°31'4 3.9
2015-Jul-23 17:34N 37°59' E 023°33'3 2.8
2015-Jul-23 16:34N 37°57' E 023°36'1 0.6
2015-Jul-23 15:33N 37°58' E 023°36'1 1.5
2015-Jul-23 14:34N 37°56' E 023°36'1 1.4
2015-Jul-23 13:34N 37°58' E 023°36'0 0.2
2015-Jul-23 12:33N 37°57' E 023°37'1 0.9
2015-Jul-23 11:33N 37°57' E 023°36'1 0.9
2015-Jul-23 10:33N 37°57' E 023°37'0 0.0
2015-Jul-23 02:25N 37°57' E 023°37'1 1.2
2015-Jul-23 01:33N 37°56' E 023°37'1 1.0
2015-Jul-23 00:33N 37°57' E 023°37'0 0.0
2015-Jul-22 23:33N 37°57' E 023°37'0 0.0
2015-Jul-22 22:33N 37°57' E 023°37'1 0.8
2015-Jul-22 21:33N 37°57' E 023°36'1 0.9
2015-Jul-22 20:33N 37°56' E 023°36'2 1.5
2015-Jul-22 19:33N 37°57' E 023°35'0 0.1
2015-Jul-22 18:33N 37°57' E 023°35'0 0.3
2015-Jul-22 17:33N 37°57' E 023°35'1 1.0
2015-Jul-22 16:33N 37°57' E 023°37'0 0.0
2015-Jul-22 15:33N 37°57' E 023°37'0 0.0
2015-Jul-22 14:33N 37°57' E 023°37'0 0.0
2015-Jul-22 13:33N 37°57' E 023°37'0 0.0
2015-Jul-22 12:33N 37°57' E 023°37'  
Track history (hours):
 
Tides and Currents Weather Stations Pressure Air Temp Water Temp Dewpoint Dewpoint Depression Visibility Wind Speed Wind Dir Waves Ship Positions

Ifestos I

Last reported at 2015-Aug-01 12:32 UTC. Time now 2015-Aug-01 16:15 UTC.
Position N 37°57' E 023°37'.

Length 30 m.

Type: Tug. MMSI: 237070500.

Date/timePositionNaut miles runAvg speedWind from/ knotsBaromVisibWave heightAir tempDewpointWater temp
2015-Aug-01 12:32N 37°57' E 023°37'0 0.0
2015-Aug-01 11:34N 37°57' E 023°37'4 3.9
2015-Aug-01 10:34N 38°01' E 023°35'0 0.4
2015-Aug-01 09:34N 38°01' E 023°36'0 0.1
2015-Aug-01 08:33N 38°01' E 023°36'0 0.1
2015-Aug-01 07:32N 38°01' E 023°35'4 4.4
2015-Aug-01 06:33N 37°58' E 023°33'3 2.6
2015-Aug-01 05:34N 37°57' E 023°36'2 1.7
2015-Aug-01 04:34N 37°56' E 023°36'0 0.3
2015-Aug-01 03:34N 37°56' E 023°36'2 1.7
2015-Aug-01 02:34N 37°57' E 023°37'0 0.0
2015-Jul-31 12:05N 37°57' E 023°37'0 0.0
2015-Jul-31 11:33N 37°57' E 023°37'0 0.2
2015-Jul-31 10:33N 37°58' E 023°36'2 2.1
2015-Jul-31 09:33N 37°55' E 023°36'2 1.5
2015-Jul-31 08:33N 37°57' E 023°36'2 2.1
2015-Jul-31 07:33N 37°58' E 023°33'0 0.0
2015-Jul-31 06:33N 37°58' E 023°33'1 1.3
2015-Jul-31 05:33N 37°57' E 023°35'1 1.4
2015-Jul-31 04:33N 37°56' E 023°35'1 1.2
2015-Jul-31 03:33N 37°57' E 023°36'1 0.8
2015-Jul-31 02:33N 37°57' E 023°37'0 0.0
2015-Jul-30 16:33N 37°57' E 023°37'0 0.0
2015-Jul-30 15:33N 37°57' E 023°37'6 5.6
2015-Jul-30 14:33N 38°02' E 023°32'0 0.2
2015-Jul-30 13:33N 38°02' E 023°32'0 0.0
2015-Jul-30 12:33N 38°02' E 023°32'2 2.4
2015-Jul-30 11:33N 38°02' E 023°35'2 2.1
2015-Jul-30 10:33N 38°01' E 023°33'4 4.0
2015-Jul-30 09:33N 37°57' E 023°37'0 0.0
2015-Jul-30 08:33N 37°57' E 023°37'1 0.9
2015-Jul-30 07:33N 37°57' E 023°37'1 0.5
2015-Jul-30 06:33N 37°57' E 023°36'1 1.0
2015-Jul-30 05:33N 37°57' E 023°37'0 0.0
2015-Jul-30 04:33N 37°57' E 023°37'0 0.0
2015-Jul-30 03:33N 37°57' E 023°37'0 0.0
2015-Jul-30 02:33N 37°57' E 023°37'0 0.0
2015-Jul-29 20:33N 37°57' E 023°37'0 0.0
2015-Jul-29 19:34N 37°57' E 023°37'0 0.0
2015-Jul-29 18:33N 37°57' E 023°37'4 3.7
2015-Jul-29 17:34N 37°60' E 023°33'3 3.1
2015-Jul-29 16:33N 38°02' E 023°31'6 6.4
2015-Jul-29 15:34N 37°57' E 023°36'0 0.5
2015-Jul-29 14:33N 37°57' E 023°37'0 0.0
2015-Jul-29 13:33N 37°57' E 023°37'0 0.0
2015-Jul-29 12:33N 37°57' E 023°37'0 0.0
2015-Jul-29 11:33N 37°57' E 023°37'0 0.2
2015-Jul-29 10:34N 37°58' E 023°36'0 0.3
2015-Jul-29 09:34N 37°57' E 023°36'0 0.4
2015-Jul-29 08:33N 37°57' E 023°37'0 0.0
2015-Jul-29 07:33N 37°57' E 023°37'0 0.0
2015-Jul-29 06:34N 37°57' E 023°37'0 0.0
2015-Jul-29 05:33N 37°57' E 023°37'0 0.0
2015-Jul-29 04:34N 37°57' E 023°37'0 0.1
2015-Jul-29 03:33N 37°57' E 023°37'0 0.0
2015-Jul-29 02:33N 37°57' E 023°37'0 0.0
2015-Jul-29 01:33N 37°57' E 023°37'0 0.0
2015-Jul-29 00:34N 37°57' E 023°37'0 0.0
2015-Jul-28 23:34N 37°57' E 023°37'0 0.0
2015-Jul-28 22:34N 37°57' E 023°37'0 0.1
2015-Jul-28 21:34N 37°58' E 023°37'0 0.1
2015-Jul-28 20:33N 37°57' E 023°37'0 0.0
2015-Jul-28 19:34N 37°57' E 023°37'0 0.0
2015-Jul-28 18:33N 37°57' E 023°37'0 0.0
2015-Jul-28 17:33N 37°57' E 023°37'0 0.0
2015-Jul-28 16:33N 37°57' E 023°37'0 0.0
2015-Jul-28 15:33N 37°57' E 023°37'0 0.0
2015-Jul-28 14:33N 37°57' E 023°37'0 0.0
2015-Jul-28 13:33N 37°57' E 023°37'2 1.6
2015-Jul-28 12:34N 37°57' E 023°35'4 4.4
2015-Jul-28 11:33N 38°01' E 023°36'0 0.1
2015-Jul-28 10:34N 38°01' E 023°36'3 2.6
2015-Jul-28 09:33N 38°02' E 023°32'1 1.3
2015-Jul-28 08:34N 38°02' E 023°31'1 0.6
2015-Jul-28 06:33N 38°02' E 023°32'3 2.7
2015-Jul-28 05:33N 37°59' E 023°33'4 4.0
2015-Jul-28 04:34N 37°56' E 023°35'2 2.2
2015-Jul-28 03:34N 37°57' E 023°37'0 0.0
2015-Jul-28 02:33N 37°57' E 023°37'0 0.0
2015-Jul-26 23:33N 37°57' E 023°37'0 0.0
2015-Jul-26 22:33N 37°57' E 023°37'0 0.0
2015-Jul-26 21:33N 37°57' E 023°37'0 0.4
2015-Jul-26 20:33N 37°57' E 023°36'0 0.4
2015-Jul-26 19:33N 37°57' E 023°37'0 0.0
2015-Jul-26 18:33N 37°57' E 023°37'1 0.5
2015-Jul-26 17:33N 37°57' E 023°36'0 0.4
2015-Jul-26 16:33N 37°58' E 023°36'0 0.2
2015-Jul-26 15:33N 37°57' E 023°37'0 0.4
2015-Jul-26 14:33N 37°58' E 023°36'0 0.4
2015-Jul-26 13:33N 37°57' E 023°37'2 1.6
2015-Jul-26 12:33N 37°56' E 023°36'2 1.6
2015-Jul-26 11:33N 37°57' E 023°37'0 0.0
2015-Jul-26 10:33N 37°57' E 023°37'0 0.0
2015-Jul-26 09:33N 37°57' E 023°37'0 0.0
2015-Jul-26 08:33N 37°57' E 023°37'6 6.4
2015-Jul-26 07:33N 38°02' E 023°31'0 0.4
2015-Jul-26 06:33N 38°02' E 023°31'2 2.2
2015-Jul-26 05:33N 38°00' E 023°32'4 4.2
2015-Jul-26 04:33N 37°57' E 023°36'0 0.5
2015-Jul-26 03:33N 37°57' E 023°37'0 0.0
2015-Jul-26 02:33N 37°57' E 023°37'0 0.0
2015-Jul-26 01:33N 37°57' E 023°37'0 0.0
2015-Jul-26 00:33N 37°57' E 023°37'0 0.0
2015-Jul-25 23:33N 37°57' E 023°37'0 0.0
2015-Jul-25 22:33N 37°57' E 023°37'0 0.0
2015-Jul-25 21:33N 37°57' E 023°37'0 0.0
2015-Jul-25 20:33N 37°57' E 023°37'0 0.0
2015-Jul-25 19:33N 37°57' E 023°37'1 1.0
2015-Jul-25 18:33N 37°57' E 023°36'1 1.0
2015-Jul-25 17:33N 37°57' E 023°37'0 0.0
2015-Jul-25 16:33N 37°57' E 023°37'1 1.5
2015-Jul-25 15:33N 37°56' E 023°37'0 0.0
2015-Jul-25 14:33N 37°56' E 023°37'1 0.6
2015-Jul-25 13:33N 37°56' E 023°38'2 1.6
2015-Jul-25 12:33N 37°57' E 023°37'0 0.0
2015-Jul-25 11:34N 37°57' E 023°37'0 0.0
2015-Jul-25 10:33N 37°57' E 023°37'0 0.0
2015-Jul-25 02:24N 37°57' E 023°37'0 0.0
2015-Jul-25 01:33N 37°57' E 023°37'0 0.1
2015-Jul-25 00:33N 37°57' E 023°37'7 6.6
2015-Jul-24 23:33N 38°02' E 023°31'0 0.1
2015-Jul-24 22:33N 38°02' E 023°31'0 0.0
2015-Jul-24 21:33N 38°02' E 023°31'0 0.0
2015-Jul-24 20:33N 38°02' E 023°31'2 1.9
2015-Jul-24 19:33N 38°01' E 023°32'5 4.7
2015-Jul-24 18:33N 37°57' E 023°37'0 0.4
2015-Jul-24 17:33N 37°57' E 023°36'0 0.4
2015-Jul-24 16:33N 37°58' E 023°36'0 0.2
2015-Jul-24 15:33N 37°57' E 023°37'0 0.0
2015-Jul-24 14:33N 37°57' E 023°37'0 0.0
2015-Jul-24 13:33N 37°57' E 023°37'1 0.7
2015-Jul-24 12:33N 37°57' E 023°36'0 0.1
2015-Jul-24 11:33N 37°57' E 023°36'1 0.6
2015-Jul-24 10:33N 37°57' E 023°37'0 0.0
2015-Jul-24 05:04N 37°57' E 023°37'0 0.0
2015-Jul-24 04:33N 37°57' E 023°37'0 0.0
2015-Jul-24 03:34N 37°57' E 023°37'0 0.0
2015-Jul-24 02:34N 37°57' E 023°37'1 1.3
2015-Jul-24 01:33N 37°56' E 023°37'1 1.3
2015-Jul-24 00:33N 37°57' E 023°37'0 0.0
2015-Jul-23 23:34N 37°57' E 023°37'0 0.0
2015-Jul-23 22:34N 37°57' E 023°37'0 0.0
2015-Jul-23 21:34N 37°57' E 023°37'0 0.0
2015-Jul-23 20:33N 37°57' E 023°37'7 6.5
2015-Jul-23 19:33N 38°02' E 023°30'1 0.5
2015-Jul-23 18:34N 38°02' E 023°31'4 3.9
2015-Jul-23 17:34N 37°59' E 023°33'3 2.8
2015-Jul-23 16:34N 37°57' E 023°36'1 0.6
2015-Jul-23 15:33N 37°58' E 023°36'1 1.5
2015-Jul-23 14:34N 37°56' E 023°36'1 1.4
2015-Jul-23 13:34N 37°58' E 023°36'0 0.2
2015-Jul-23 12:33N 37°57' E 023°37'1 0.9
2015-Jul-23 11:33N 37°57' E 023°36'1 0.9
2015-Jul-23 10:33N 37°57' E 023°37'0 0.0
2015-Jul-23 02:25N 37°57' E 023°37'1 1.2
2015-Jul-23 01:33N 37°56' E 023°37'1 1.0
2015-Jul-23 00:33N 37°57' E 023°37'0 0.0
2015-Jul-22 23:33N 37°57' E 023°37'0 0.0
2015-Jul-22 22:33N 37°57' E 023°37'1 0.8
2015-Jul-22 21:33N 37°57' E 023°36'1 0.9
2015-Jul-22 20:33N 37°56' E 023°36'2 1.5
2015-Jul-22 19:33N 37°57' E 023°35'0 0.1
2015-Jul-22 18:33N 37°57' E 023°35'0 0.3
2015-Jul-22 17:33N 37°57' E 023°35'1 1.0
2015-Jul-22 16:33N 37°57' E 023°37'0 0.0
2015-Jul-22 15:33N 37°57' E 023°37'0 0.0
2015-Jul-22 14:33N 37°57' E 023°37'0 0.0
2015-Jul-22 13:33N 37°57' E 023°37'0 0.0
2015-Jul-22 12:33N 37°57' E 023°37'  

Dump ship's entire track history